sensor_id;sensor_type;location;lat;lon;timestamp;pressure;altitude;pressure_sealevel;temperature;humidity
31346;BME280;21711;49.708;18.568;2022-09-03T00:01:27;97499.97;;;9.38;100.00
31346;BME280;21711;49.708;18.568;2022-09-03T00:04:01;97494.16;;;9.31;100.00
31346;BME280;21711;49.708;18.568;2022-09-03T00:06:44;97492.59;;;9.30;100.00
31346;BME280;21711;49.708;18.568;2022-09-03T00:09:26;97496.53;;;9.27;100.00
31346;BME280;21711;49.708;18.568;2022-09-03T00:12:24;97488.06;;;9.30;100.00
31346;BME280;21711;49.708;18.568;2022-09-03T00:15:01;97489.38;;;9.23;100.00
31346;BME280;21711;49.708;18.568;2022-09-03T00:17:46;97484.66;;;9.25;100.00
31346;BME280;21711;49.708;18.568;2022-09-03T00:20:54;97482.00;;;9.25;100.00
31346;BME280;21711;49.708;18.568;2022-09-03T00:23:27;97487.78;;;9.21;100.00
31346;BME280;21711;49.708;18.568;2022-09-03T00:28:56;97477.75;;;9.24;100.00
31346;BME280;21711;49.708;18.568;2022-09-03T00:31:42;97481.22;;;9.24;100.00
31346;BME280;21711;49.708;18.568;2022-09-03T00:34:34;97471.16;;;9.21;100.00
31346;BME280;21711;49.708;18.568;2022-09-03T00:37:06;97479.84;;;9.16;100.00
31346;BME280;21711;49.708;18.568;2022-09-03T00:39:41;97482.53;;;9.27;100.00
31346;BME280;21711;49.708;18.568;2022-09-03T00:46:06;97478.59;;;9.29;100.00
31346;BME280;21711;49.708;18.568;2022-09-03T00:48:20;97475.34;;;9.17;100.00
31346;BME280;21711;49.708;18.568;2022-09-03T00:54:41;97472.22;;;9.20;100.00
31346;BME280;21711;49.708;18.568;2022-09-03T01:14:56;97469.28;;;9.11;100.00
31346;BME280;21711;49.708;18.568;2022-09-03T01:20:58;97478.22;;;9.05;100.00
31346;BME280;21711;49.708;18.568;2022-09-03T01:32:13;97475.88;;;9.08;100.00
31346;BME280;21711;49.708;18.568;2022-09-03T01:38:15;97470.56;;;8.98;100.00
31346;BME280;21711;49.708;18.568;2022-09-03T01:46:40;97472.88;;;8.89;100.00
31346;BME280;21711;49.708;18.568;2022-09-03T01:49:31;97472.38;;;8.92;100.00
31346;BME280;21711;49.708;18.568;2022-09-03T01:52:54;97480.03;;;8.94;100.00
31346;BME280;21711;49.708;18.568;2022-09-03T02:01:02;97476.31;;;8.90;100.00
31346;BME280;21711;49.708;18.568;2022-09-03T02:03:39;97476.81;;;8.87;100.00
31346;BME280;21711;49.708;18.568;2022-09-03T02:06:11;97485.00;;;8.90;100.00
31346;BME280;21711;49.708;18.568;2022-09-03T02:08:38;97483.91;;;8.86;100.00
31346;BME280;21711;49.708;18.568;2022-09-03T02:11:08;97482.09;;;8.87;100.00
31346;BME280;21711;49.708;18.568;2022-09-03T02:13:43;97479.69;;;8.85;100.00
31346;BME280;21711;49.708;18.568;2022-09-03T02:16:15;97483.41;;;8.89;100.00
31346;BME280;21711;49.708;18.568;2022-09-03T02:18:47;97480.50;;;8.86;100.00
31346;BME280;21711;49.708;18.568;2022-09-03T02:21:19;97483.13;;;8.80;100.00
31346;BME280;21711;49.708;18.568;2022-09-03T02:23:48;97486.28;;;8.82;100.00
31346;BME280;21711;49.708;18.568;2022-09-03T02:26:21;97482.88;;;8.82;100.00
31346;BME280;21711;49.708;18.568;2022-09-03T02:28:50;97480.19;;;8.77;100.00
31346;BME280;21711;49.708;18.568;2022-09-03T02:31:18;97478.09;;;8.79;100.00
31346;BME280;21711;49.708;18.568;2022-09-03T02:33:47;97474.41;;;8.80;100.00
31346;BME280;21711;49.708;18.568;2022-09-03T02:36:20;97482.84;;;8.77;100.00
31346;BME280;21711;49.708;18.568;2022-09-03T02:38:53;97472.53;;;8.75;100.00
31346;BME280;21711;49.708;18.568;2022-09-03T02:41:21;97478.91;;;8.79;100.00
31346;BME280;21711;49.708;18.568;2022-09-03T02:46:58;97472.28;;;8.77;100.00
31346;BME280;21711;49.708;18.568;2022-09-03T02:49:26;97469.91;;;8.75;100.00
31346;BME280;21711;49.708;18.568;2022-09-03T02:52:07;97481.19;;;8.71;100.00
31346;BME280;21711;49.708;18.568;2022-09-03T02:54:36;97489.38;;;8.74;100.00
31346;BME280;21711;49.708;18.568;2022-09-03T02:57:12;97491.22;;;8.68;100.00
31346;BME280;21711;49.708;18.568;2022-09-03T02:59:41;97480.69;;;8.74;100.00
31346;BME280;21711;49.708;18.568;2022-09-03T03:02:11;97478.06;;;8.74;100.00
31346;BME280;21711;49.708;18.568;2022-09-03T03:04:39;97482.78;;;8.72;100.00
31346;BME280;21711;49.708;18.568;2022-09-03T03:07:07;97482.53;;;8.73;100.00
31346;BME280;21711;49.708;18.568;2022-09-03T03:09:34;97479.13;;;8.73;100.00
31346;BME280;21711;49.708;18.568;2022-09-03T03:12:02;97480.13;;;8.66;100.00
31346;BME280;21711;49.708;18.568;2022-09-03T03:14:29;97473.25;;;8.65;100.00
31346;BME280;21711;49.708;18.568;2022-09-03T03:16:57;97479.84;;;8.63;100.00
31346;BME280;21711;49.708;18.568;2022-09-03T03:19:24;97476.41;;;8.62;100.00
31346;BME280;21711;49.708;18.568;2022-09-03T03:21:52;97472.19;;;8.61;100.00
31346;BME280;21711;49.708;18.568;2022-09-03T03:24:19;97468.75;;;8.55;100.00
31346;BME280;21711;49.708;18.568;2022-09-03T03:26:47;97471.28;;;8.50;100.00
31346;BME280;21711;49.708;18.568;2022-09-03T03:29:15;97473.44;;;8.53;100.00
31346;BME280;21711;49.708;18.568;2022-09-03T03:31:46;97471.38;;;8.55;100.00
31346;BME280;21711;49.708;18.568;2022-09-03T03:34:14;97474.78;;;8.56;100.00
31346;BME280;21711;49.708;18.568;2022-09-03T03:36:41;97472.97;;;8.57;100.00
31346;BME280;21711;49.708;18.568;2022-09-03T03:39:08;97480.00;;;8.51;100.00
31346;BME280;21711;49.708;18.568;2022-09-03T03:41:37;97476.84;;;8.49;100.00
31346;BME280;21711;49.708;18.568;2022-09-03T03:44:06;97472.91;;;8.51;100.00
31346;BME280;21711;49.708;18.568;2022-09-03T03:46:38;97481.78;;;8.45;100.00
31346;BME280;21711;49.708;18.568;2022-09-03T03:49:07;97489.28;;;8.53;100.00
31346;BME280;21711;49.708;18.568;2022-09-03T03:51:36;97484.81;;;8.54;100.00
31346;BME280;21711;49.708;18.568;2022-09-03T03:54:04;97491.09;;;8.53;100.00
31346;BME280;21711;49.708;18.568;2022-09-03T03:56:33;97486.84;;;8.52;100.00
31346;BME280;21711;49.708;18.568;2022-09-03T03:59:02;97494.28;;;8.55;100.00
31346;BME280;21711;49.708;18.568;2022-09-03T04:01:29;97497.72;;;8.55;100.00
31346;BME280;21711;49.708;18.568;2022-09-03T04:03:58;97498.50;;;8.56;100.00
31346;BME280;21711;49.708;18.568;2022-09-03T04:06:27;97500.91;;;8.58;100.00
31346;BME280;21711;49.708;18.568;2022-09-03T04:08:55;97500.13;;;8.62;100.00
31346;BME280;21711;49.708;18.568;2022-09-03T04:11:24;97494.34;;;8.65;100.00
31346;BME280;21711;49.708;18.568;2022-09-03T04:13:53;97499.63;;;8.65;100.00
31346;BME280;21711;49.708;18.568;2022-09-03T04:16:23;97500.97;;;8.68;100.00
31346;BME280;21711;49.708;18.568;2022-09-03T04:18:53;97496.81;;;8.82;100.00
31346;BME280;21711;49.708;18.568;2022-09-03T04:21:27;97499.88;;;9.07;100.00
31346;BME280;21711;49.708;18.568;2022-09-03T04:23:56;97501.78;;;9.22;100.00
31346;BME280;21711;49.708;18.568;2022-09-03T04:26:30;97506.63;;;9.46;100.00
31346;BME280;21711;49.708;18.568;2022-09-03T04:28:59;97513.56;;;9.78;100.00
31346;BME280;21711;49.708;18.568;2022-09-03T04:31:30;97512.31;;;10.17;100.00
31346;BME280;21711;49.708;18.568;2022-09-03T04:33:58;97515.50;;;10.40;100.00
31346;BME280;21711;49.708;18.568;2022-09-03T04:36:28;97522.91;;;10.54;100.00
31346;BME280;21711;49.708;18.568;2022-09-03T04:38:58;97522.91;;;10.59;100.00
31346;BME280;21711;49.708;18.568;2022-09-03T04:41:28;97521.03;;;10.85;100.00
31346;BME280;21711;49.708;18.568;2022-09-03T04:43:57;97534.63;;;11.34;100.00
31346;BME280;21711;49.708;18.568;2022-09-03T04:46:28;97537.09;;;11.81;100.00
31346;BME280;21711;49.708;18.568;2022-09-03T04:49:01;97535.38;;;12.01;100.00
31346;BME280;21711;49.708;18.568;2022-09-03T04:51:29;97537.13;;;12.21;100.00
31346;BME280;21711;49.708;18.568;2022-09-03T04:54:01;97541.94;;;12.48;100.00
31346;BME280;21711;49.708;18.568;2022-09-03T04:56:32;97535.31;;;12.81;100.00
31346;BME280;21711;49.708;18.568;2022-09-03T04:59:04;97531.03;;;12.85;100.00
31346;BME280;21711;49.708;18.568;2022-09-03T05:01:35;97533.75;;;13.04;100.00
31346;BME280;21711;49.708;18.568;2022-09-03T05:04:04;97532.34;;;13.12;100.00
31346;BME280;21711;49.708;18.568;2022-09-03T05:06:33;97529.25;;;13.29;100.00
31346;BME280;21711;49.708;18.568;2022-09-03T05:09:01;97530.84;;;13.54;100.00
31346;BME280;21711;49.708;18.568;2022-09-03T05:11:29;97526.31;;;13.93;100.00
31346;BME280;21711;49.708;18.568;2022-09-03T05:13:59;97527.06;;;14.32;100.00
31346;BME280;21711;49.708;18.568;2022-09-03T05:16:27;97520.50;;;14.77;100.00
31346;BME280;21711;49.708;18.568;2022-09-03T05:18:58;97534.25;;;15.12;100.00
31346;BME280;21711;49.708;18.568;2022-09-03T05:21:27;97540.97;;;15.38;100.00
31346;BME280;21711;49.708;18.568;2022-09-03T05:23:55;97538.28;;;15.24;100.00
31346;BME280;21711;49.708;18.568;2022-09-03T05:26:26;97531.97;;;15.34;100.00
31346;BME280;21711;49.708;18.568;2022-09-03T05:28:59;97527.03;;;14.99;100.00
31346;BME280;21711;49.708;18.568;2022-09-03T05:31:29;97528.31;;;15.02;100.00
31346;BME280;21711;49.708;18.568;2022-09-03T05:34:02;97525.53;;;15.49;100.00
31346;BME280;21711;49.708;18.568;2022-09-03T05:36:33;97535.34;;;16.04;100.00
31346;BME280;21711;49.708;18.568;2022-09-03T05:39:01;97540.56;;;16.87;100.00
31346;BME280;21711;49.708;18.568;2022-09-03T05:41:29;97548.13;;;17.26;100.00
31346;BME280;21711;49.708;18.568;2022-09-03T05:43:59;97547.69;;;17.32;100.00
31346;BME280;21711;49.708;18.568;2022-09-03T05:46:33;97549.72;;;18.20;90.44
31346;BME280;21711;49.708;18.568;2022-09-03T05:49:05;97553.25;;;18.69;87.99
31346;BME280;21711;49.708;18.568;2022-09-03T05:51:35;97556.38;;;19.27;85.54
31346;BME280;21711;49.708;18.568;2022-09-03T05:54:03;97554.19;;;19.29;85.60
31346;BME280;21711;49.708;18.568;2022-09-03T05:56:32;97552.56;;;19.89;80.78
31346;BME280;21711;49.708;18.568;2022-09-03T05:59:05;97551.97;;;20.26;80.85
31346;BME280;21711;49.708;18.568;2022-09-03T06:01:41;97554.53;;;20.22;70.30
31346;BME280;21711;49.708;18.568;2022-09-03T06:04:19;97555.91;;;20.28;71.20
31346;BME280;21711;49.708;18.568;2022-09-03T06:06:47;97552.84;;;20.51;68.28
31346;BME280;21711;49.708;18.568;2022-09-03T06:09:18;97549.56;;;20.45;67.23
31346;BME280;21711;49.708;18.568;2022-09-03T06:11:47;97558.81;;;21.15;54.47
31346;BME280;21711;49.708;18.568;2022-09-03T06:14:16;97557.13;;;21.61;53.72
31346;BME280;21711;49.708;18.568;2022-09-03T06:16:46;97554.88;;;21.50;53.85
31346;BME280;21711;49.708;18.568;2022-09-03T06:19:19;97560.78;;;21.81;53.94
31346;BME280;21711;49.708;18.568;2022-09-03T06:21:46;97558.75;;;22.03;53.90
31346;BME280;21711;49.708;18.568;2022-09-03T06:24:19;97561.28;;;22.40;53.42
31346;BME280;21711;49.708;18.568;2022-09-03T06:26:57;97563.13;;;22.81;50.54
31346;BME280;21711;49.708;18.568;2022-09-03T06:29:25;97560.50;;;23.49;49.37
31346;BME280;21711;49.708;18.568;2022-09-03T06:31:53;97565.91;;;24.04;47.71
31346;BME280;21711;49.708;18.568;2022-09-03T06:34:23;97569.69;;;24.39;45.81
31346;BME280;21711;49.708;18.568;2022-09-03T06:36:52;97570.16;;;24.85;44.91
31346;BME280;21711;49.708;18.568;2022-09-03T06:39:21;97562.84;;;24.65;45.16
31346;BME280;21711;49.708;18.568;2022-09-03T06:41:48;97568.34;;;24.49;45.41
31346;BME280;21711;49.708;18.568;2022-09-03T06:44:25;97560.09;;;24.62;45.97
31346;BME280;21711;49.708;18.568;2022-09-03T06:46:52;97564.78;;;25.12;43.13
31346;BME280;21711;49.708;18.568;2022-09-03T06:49:19;97569.72;;;25.06;44.21
31346;BME280;21711;49.708;18.568;2022-09-03T06:51:47;97568.97;;;26.17;41.25
31346;BME280;21711;49.708;18.568;2022-09-03T06:54:14;97565.22;;;26.63;39.87
31346;BME280;21711;49.708;18.568;2022-09-03T06:56:42;97567.22;;;26.32;40.93
31346;BME280;21711;49.708;18.568;2022-09-03T06:59:12;97563.97;;;26.95;40.04
31346;BME280;21711;49.708;18.568;2022-09-03T07:01:42;97562.63;;;26.74;39.66
31346;BME280;21711;49.708;18.568;2022-09-03T07:04:14;97555.47;;;26.97;39.75
31346;BME280;21711;49.708;18.568;2022-09-03T07:06:46;97553.94;;;27.55;38.97
31346;BME280;21711;49.708;18.568;2022-09-03T07:09:14;97559.28;;;27.41;38.44
31346;BME280;21711;49.708;18.568;2022-09-03T07:11:44;97565.47;;;28.08;36.26
31346;BME280;21711;49.708;18.568;2022-09-03T07:14:17;97572.63;;;28.82;36.07
31346;BME280;21711;49.708;18.568;2022-09-03T07:16:47;97565.19;;;28.43;36.37
31346;BME280;21711;49.708;18.568;2022-09-03T07:19:15;97560.59;;;29.31;35.06
31346;BME280;21711;49.708;18.568;2022-09-03T07:21:43;97563.34;;;29.31;34.90
31346;BME280;21711;49.708;18.568;2022-09-03T07:24:17;97570.16;;;30.83;31.66
31346;BME280;21711;49.708;18.568;2022-09-03T07:26:44;97573.34;;;30.70;31.76
31346;BME280;21711;49.708;18.568;2022-09-03T07:29:16;97573.59;;;30.94;30.83
31346;BME280;21711;49.708;18.568;2022-09-03T07:31:49;97571.94;;;30.44;31.20
31346;BME280;21711;49.708;18.568;2022-09-03T07:34:19;97566.56;;;30.33;31.84
31346;BME280;21711;49.708;18.568;2022-09-03T07:36:48;97574.06;;;30.86;32.25
31346;BME280;21711;49.708;18.568;2022-09-03T07:39:18;97583.28;;;31.03;31.73
31346;BME280;21711;49.708;18.568;2022-09-03T07:41:46;97572.94;;;31.67;29.52
31346;BME280;21711;49.708;18.568;2022-09-03T07:44:15;97572.22;;;31.59;30.78
31346;BME280;21711;49.708;18.568;2022-09-03T07:46:46;97575.22;;;30.84;30.46
31346;BME280;21711;49.708;18.568;2022-09-03T07:49:18;97569.38;;;30.08;32.75
31346;BME280;21711;49.708;18.568;2022-09-03T07:51:46;97566.31;;;31.30;31.92
31346;BME280;21711;49.708;18.568;2022-09-03T07:54:16;97579.75;;;31.06;32.79
31346;BME280;21711;49.708;18.568;2022-09-03T07:56:44;97564.34;;;30.06;32.40
31346;BME280;21711;49.708;18.568;2022-09-03T07:59:11;97571.44;;;31.17;31.55
31346;BME280;21711;49.708;18.568;2022-09-03T08:01:38;97567.31;;;31.43;31.12
31346;BME280;21711;49.708;18.568;2022-09-03T08:04:08;97565.94;;;31.24;31.06
31346;BME280;21711;49.708;18.568;2022-09-03T08:06:38;97574.41;;;30.88;34.09
31346;BME280;21711;49.708;18.568;2022-09-03T08:09:08;97580.66;;;30.21;32.01
31346;BME280;21711;49.708;18.568;2022-09-03T08:11:40;97570.94;;;30.05;31.92
31346;BME280;21711;49.708;18.568;2022-09-03T08:14:11;97578.81;;;30.67;32.93
31346;BME280;21711;49.708;18.568;2022-09-03T08:16:43;97578.69;;;31.38;31.43
31346;BME280;21711;49.708;18.568;2022-09-03T08:19:14;97576.66;;;31.88;30.27
31346;BME280;21711;49.708;18.568;2022-09-03T08:21:44;97573.25;;;30.85;30.19
31346;BME280;21711;49.708;18.568;2022-09-03T08:24:15;97576.34;;;31.36;30.32
31346;BME280;21711;49.708;18.568;2022-09-03T08:26:42;97572.91;;;32.92;28.38
31346;BME280;21711;49.708;18.568;2022-09-03T08:29:18;97569.59;;;31.48;29.64
31346;BME280;21711;49.708;18.568;2022-09-03T08:31:45;97579.50;;;33.42;27.50
31346;BME280;21711;49.708;18.568;2022-09-03T08:34:13;97588.22;;;34.22;27.31
31346;BME280;21711;49.708;18.568;2022-09-03T08:36:42;97588.59;;;33.15;27.98
31346;BME280;21711;49.708;18.568;2022-09-03T08:39:12;97571.88;;;32.27;29.10
31346;BME280;21711;49.708;18.568;2022-09-03T08:50:25;97577.00;;;34.86;25.83
31346;BME280;21711;49.708;18.568;2022-09-03T08:53:14;97578.63;;;36.06;24.11
31346;BME280;21711;49.708;18.568;2022-09-03T08:55:59;97573.44;;;35.95;24.80
31346;BME280;21711;49.708;18.568;2022-09-03T08:58:32;97576.03;;;35.73;24.83
31346;BME280;21711;49.708;18.568;2022-09-03T09:01:37;97574.22;;;35.96;24.63
31346;BME280;21711;49.708;18.568;2022-09-03T09:22:02;97564.03;;;33.56;27.58
31346;BME280;21711;49.708;18.568;2022-09-03T09:24:52;97576.44;;;33.16;27.40
31346;BME280;21711;49.708;18.568;2022-09-03T09:27:21;97575.72;;;33.60;28.85
31346;BME280;21711;49.708;18.568;2022-09-03T09:29:50;97575.97;;;34.06;27.13
31346;BME280;21711;49.708;18.568;2022-09-03T09:32:19;97570.50;;;34.27;27.62
31346;BME280;21711;49.708;18.568;2022-09-03T09:34:48;97574.06;;;34.94;27.28
31346;BME280;21711;49.708;18.568;2022-09-03T09:37:19;97574.59;;;34.72;26.77
31346;BME280;21711;49.708;18.568;2022-09-03T09:39:59;97573.75;;;34.38;27.45
31346;BME280;21711;49.708;18.568;2022-09-03T09:42:27;97565.34;;;33.88;28.22
31346;BME280;21711;49.708;18.568;2022-09-03T09:45:07;97562.88;;;32.82;29.83
31346;BME280;21711;49.708;18.568;2022-09-03T09:47:38;97567.66;;;32.50;29.62
31346;BME280;21711;49.708;18.568;2022-09-03T09:50:17;97572.16;;;33.15;28.19
31346;BME280;21711;49.708;18.568;2022-09-03T09:53:09;97573.50;;;33.27;28.72
31346;BME280;21711;49.708;18.568;2022-09-03T09:55:55;97571.28;;;34.07;27.92
31346;BME280;21711;49.708;18.568;2022-09-03T09:58:28;97574.69;;;34.48;26.56
31346;BME280;21711;49.708;18.568;2022-09-03T10:01:20;97582.28;;;35.27;27.08
31346;BME280;21711;49.708;18.568;2022-09-03T10:03:55;97586.28;;;35.85;24.92
31346;BME280;21711;49.708;18.568;2022-09-03T10:06:28;97587.63;;;34.84;26.26
31346;BME280;21711;49.708;18.568;2022-09-03T10:09:17;97580.84;;;33.34;28.78
31346;BME280;21711;49.708;18.568;2022-09-03T10:12:25;97581.66;;;33.55;28.37
31346;BME280;21711;49.708;18.568;2022-09-03T10:17:50;97580.94;;;34.69;26.90
31346;BME280;21711;49.708;18.568;2022-09-03T10:26:18;97559.50;;;33.01;28.29
31346;BME280;21711;49.708;18.568;2022-09-03T10:28:50;97557.25;;;32.92;27.85
31346;BME280;21711;49.708;18.568;2022-09-03T10:40:13;97558.34;;;32.16;29.20
31346;BME280;21711;49.708;18.568;2022-09-03T10:46:26;97551.56;;;32.56;30.09
31346;BME280;21711;49.708;18.568;2022-09-03T10:54:54;97553.88;;;31.21;32.01
31346;BME280;21711;49.708;18.568;2022-09-03T11:00:32;97546.53;;;30.62;31.98
31346;BME280;21711;49.708;18.568;2022-09-03T11:03:34;97545.22;;;31.30;32.46
31346;BME280;21711;49.708;18.568;2022-09-03T11:06:19;97542.16;;;31.98;31.69
31346;BME280;21711;49.708;18.568;2022-09-03T11:09:10;97540.84;;;31.75;32.65
31346;BME280;21711;49.708;18.568;2022-09-03T11:12:00;97536.91;;;30.99;33.52
31346;BME280;21711;49.708;18.568;2022-09-03T11:14:41;97535.69;;;31.81;32.17
31346;BME280;21711;49.708;18.568;2022-09-03T11:17:16;97534.28;;;31.69;32.03
31346;BME280;21711;49.708;18.568;2022-09-03T11:20:25;97539.22;;;32.12;31.08
31346;BME280;21711;49.708;18.568;2022-09-03T11:22:58;97534.38;;;31.61;31.33
31346;BME280;21711;49.708;18.568;2022-09-03T11:25:34;97533.56;;;30.77;33.61
31346;BME280;21711;49.708;18.568;2022-09-03T11:28:34;97522.78;;;30.55;32.32
31346;BME280;21711;49.708;18.568;2022-09-03T11:31:15;97519.81;;;29.09;36.22
31346;BME280;21711;49.708;18.568;2022-09-03T11:33:50;97519.03;;;28.94;36.50
31346;BME280;21711;49.708;18.568;2022-09-03T11:36:34;97512.63;;;27.95;36.29
31346;BME280;21711;49.708;18.568;2022-09-03T11:39:35;97516.91;;;27.25;40.11
31346;BME280;21711;49.708;18.568;2022-09-03T11:42:11;97519.22;;;27.94;37.69
31346;BME280;21711;49.708;18.568;2022-09-03T11:44:50;97518.34;;;27.72;37.97
31346;BME280;21711;49.708;18.568;2022-09-03T11:47:43;97522.53;;;27.58;40.25
31346;BME280;21711;49.708;18.568;2022-09-03T11:50:23;97518.88;;;27.28;40.87
31346;BME280;21711;49.708;18.568;2022-09-03T11:53:05;97518.16;;;26.41;41.76
31346;BME280;21711;49.708;18.568;2022-09-03T11:55:55;97514.78;;;26.17;43.08
31346;BME280;21711;49.708;18.568;2022-09-03T11:58:36;97520.09;;;26.10;41.83
31346;BME280;21711;49.708;18.568;2022-09-03T12:01:16;97517.09;;;26.53;41.68
31346;BME280;21711;49.708;18.568;2022-09-03T12:03:50;97522.19;;;26.58;41.79
31346;BME280;21711;49.708;18.568;2022-09-03T12:09:03;97521.22;;;26.81;41.93
31346;BME280;21711;49.708;18.568;2022-09-03T12:18:21;97511.97;;;25.76;43.49
31346;BME280;21711;49.708;18.568;2022-09-03T12:23:47;97504.50;;;25.38;43.59
31346;BME280;21711;49.708;18.568;2022-09-03T12:26:26;97509.88;;;25.62;46.45
31346;BME280;21711;49.708;18.568;2022-09-03T12:28:56;97508.91;;;25.50;47.36
31346;BME280;21711;49.708;18.568;2022-09-03T12:31:28;97506.56;;;24.94;46.82
31346;BME280;21711;49.708;18.568;2022-09-03T12:34:15;97501.84;;;24.21;49.27
31346;BME280;21711;49.708;18.568;2022-09-03T12:36:46;97499.13;;;24.21;48.42
31346;BME280;21711;49.708;18.568;2022-09-03T12:39:17;97498.06;;;23.86;50.83
31346;BME280;21711;49.708;18.568;2022-09-03T12:42:05;97498.13;;;23.90;50.05
31346;BME280;21711;49.708;18.568;2022-09-03T12:47:13;97494.28;;;24.30;49.77
31346;BME280;21711;49.708;18.568;2022-09-03T12:50:17;97494.38;;;24.14;49.60
31346;BME280;21711;49.708;18.568;2022-09-03T12:53:00;97500.28;;;23.45;50.58
31346;BME280;21711;49.708;18.568;2022-09-03T12:55:51;97491.81;;;23.82;51.15
31346;BME280;21711;49.708;18.568;2022-09-03T12:58:37;97497.06;;;23.75;52.65
31346;BME280;21711;49.708;18.568;2022-09-03T13:01:15;97491.28;;;23.05;52.62
31346;BME280;21711;49.708;18.568;2022-09-03T13:04:13;97489.31;;;22.85;54.57
31346;BME280;21711;49.708;18.568;2022-09-03T13:07:04;97489.31;;;23.02;57.20
31346;BME280;21711;49.708;18.568;2022-09-03T13:09:36;97490.91;;;23.38;53.11
31346;BME280;21711;49.708;18.568;2022-09-03T13:12:05;97490.13;;;23.74;51.95
31346;BME280;21711;49.708;18.568;2022-09-03T13:14:44;97489.31;;;23.54;54.29
31346;BME280;21711;49.708;18.568;2022-09-03T13:23:52;97479.75;;;22.88;55.48
31346;BME280;21711;49.708;18.568;2022-09-03T13:26:58;97489.63;;;23.16;56.06
31346;BME280;21711;49.708;18.568;2022-09-03T13:30:13;97494.81;;;23.41;53.31
31346;BME280;21711;49.708;18.568;2022-09-03T13:41:37;97477.88;;;22.44;60.08
31346;BME280;21711;49.708;18.568;2022-09-03T13:47:07;97484.72;;;22.41;57.31
31346;BME280;21711;49.708;18.568;2022-09-03T13:50:09;97489.19;;;22.50;60.74
31346;BME280;21711;49.708;18.568;2022-09-03T13:53:16;97493.22;;;22.72;54.37
31346;BME280;21711;49.708;18.568;2022-09-03T13:55:55;97489.16;;;22.33;59.69
31346;BME280;21711;49.708;18.568;2022-09-03T14:13:21;97487.91;;;21.20;58.69
31346;BME280;21711;49.708;18.568;2022-09-03T14:18:57;97479.72;;;21.04;62.17
31346;BME280;21711;49.708;18.568;2022-09-03T14:24:30;97488.13;;;21.15;59.89
31346;BME280;21711;49.708;18.568;2022-09-03T14:27:04;97486.53;;;20.76;62.31
31346;BME280;21711;49.708;18.568;2022-09-03T14:29:35;97478.91;;;20.79;62.43
31346;BME280;21711;49.708;18.568;2022-09-03T14:32:28;97477.31;;;20.53;63.17
31346;BME280;21711;49.708;18.568;2022-09-03T14:44:32;97477.00;;;20.79;60.70
31346;BME280;21711;49.708;18.568;2022-09-03T14:50:27;97471.75;;;20.83;61.17
31346;BME280;21711;49.708;18.568;2022-09-03T14:53:41;97466.31;;;20.92;61.79
31346;BME280;21711;49.708;18.568;2022-09-03T14:56:58;97464.84;;;20.94;62.21
31346;BME280;21711;49.708;18.568;2022-09-03T15:10:37;97452.22;;;20.36;67.02
31346;BME280;21711;49.708;18.568;2022-09-03T15:13:18;97455.56;;;20.33;65.96
31346;BME280;21711;49.708;18.568;2022-09-03T15:16:08;97459.59;;;20.39;64.49
31346;BME280;21711;49.708;18.568;2022-09-03T15:19:05;97465.44;;;20.41;61.27
31346;BME280;21711;49.708;18.568;2022-09-03T15:21:57;97459.16;;;20.49;61.96
31346;BME280;21711;49.708;18.568;2022-09-03T15:27:46;97463.22;;;20.56;63.02
31346;BME280;21711;49.708;18.568;2022-09-03T15:30:20;97460.28;;;20.48;65.56
31346;BME280;21711;49.708;18.568;2022-09-03T15:33:34;97462.94;;;20.36;67.98
31346;BME280;21711;49.708;18.568;2022-09-03T15:36:21;97454.78;;;20.32;63.49
31346;BME280;21711;49.708;18.568;2022-09-03T15:39:00;97469.66;;;20.30;65.54
31346;BME280;21711;49.708;18.568;2022-09-03T15:44:13;97462.47;;;20.21;67.44
31346;BME280;21711;49.708;18.568;2022-09-03T15:46:59;97458.88;;;20.17;67.25
31346;BME280;21711;49.708;18.568;2022-09-03T15:50:00;97456.75;;;20.10;69.19
31346;BME280;21711;49.708;18.568;2022-09-03T15:55:36;97458.94;;;19.75;74.91
31346;BME280;21711;49.708;18.568;2022-09-03T15:58:40;97462.78;;;19.65;73.86
31346;BME280;21711;49.708;18.568;2022-09-03T16:07:06;97461.53;;;19.41;74.25
31346;BME280;21711;49.708;18.568;2022-09-03T16:10:14;97456.09;;;19.28;75.09
31346;BME280;21711;49.708;18.568;2022-09-03T16:22:21;97466.47;;;19.00;81.36
31346;BME280;21711;49.708;18.568;2022-09-03T16:25:21;97467.63;;;18.90;83.10
31346;BME280;21711;49.708;18.568;2022-09-03T16:27:59;97460.56;;;18.76;83.94
31346;BME280;21711;49.708;18.568;2022-09-03T16:45:37;97456.69;;;17.91;97.13
31346;BME280;21711;49.708;18.568;2022-09-03T16:57:19;97461.69;;;17.57;100.00
31346;BME280;21711;49.708;18.568;2022-09-03T17:00:12;97459.50;;;17.50;100.00
31346;BME280;21711;49.708;18.568;2022-09-03T17:09:21;97467.97;;;17.26;100.00
31346;BME280;21711;49.708;18.568;2022-09-03T17:12:14;97469.84;;;17.16;100.00
31346;BME280;21711;49.708;18.568;2022-09-03T17:18:30;97478.13;;;16.74;100.00
31346;BME280;21711;49.708;18.568;2022-09-03T17:38:40;97491.31;;;16.16;100.00
31346;BME280;21711;49.708;18.568;2022-09-03T17:41:49;97492.97;;;16.03;100.00
31346;BME280;21711;49.708;18.568;2022-09-03T17:45:02;97495.97;;;15.87;100.00
31346;BME280;21711;49.708;18.568;2022-09-03T17:53:52;97506.06;;;15.76;100.00
31346;BME280;21711;49.708;18.568;2022-09-03T17:56:48;97506.25;;;15.80;100.00
31346;BME280;21711;49.708;18.568;2022-09-03T18:00:00;97510.88;;;15.74;100.00
31346;BME280;21711;49.708;18.568;2022-09-03T18:03:26;97504.13;;;15.54;100.00
31346;BME280;21711;49.708;18.568;2022-09-03T18:06:35;97502.94;;;15.46;100.00
31346;BME280;21711;49.708;18.568;2022-09-03T18:11:53;97501.19;;;15.42;100.00
31346;BME280;21711;49.708;18.568;2022-09-03T18:17:30;97506.91;;;15.35;100.00